Aérodrome :
LOGIN :

S'inscrire | Disclaimer

   EN    FR    IT 

 










Légende :    VFR   VFR Marginal   IFR   IFR Intensif   IFR Très Intensif
Visi : 
Plafond : 
>= 8 km
>= 3000ft
5 à 8 km
1000 à 3000 ft
1500m à 5 km
500 à 1000 ft
800 à 1500m
200 à 500 ft
< 800m
< 200 ft
Symboles :   Orages  Brouillard  Fortes neiges  Fortes précipitations  Vent > 20 kt
SIGMETs :   Divers  Orages  Givrage  Turbulence  Onde Orograph.  Cendres Volcan.







- Altitude de l'aérodrome : 1411 ft
- Code IATA : SZG


LOWS - Salzburg

DERNIER METAR :
  • 260350Z 17004KT 9999 FEW014 BKN040 12/12 Q1017 NOSIG

METARs EXPIRÉS :
  • 260320Z AUTO 14003KT 9999 FEW032 OVC034 12/11 Q1017
  • 260250Z AUTO 17004KT 9999 BKN034 12/11 Q1017
  • 260220Z AUTO 16005KT 9999 FEW034 BKN036 12/11 Q1017
  • 260150Z AUTO 18004KT 9999 FEW002 BKN034 12/11 Q1017
  • 260120Z AUTO VRB02KT 9999 FEW032 BKN060 13/11 Q1017

TAF TAF LOWS
Valide du 26 à 00h jusqu'au 27 à 00h UTC


252315Z 2600/2624 16006KT 9999 SCT050 BKN100 TX20/2615Z TN12/2603Z
BECMG 2607/2609 33006KT FEW050 SCT090
BECMG 2618/2620 15005KT CAVOK
Pas de NOTAMs connus pour ce terrain.



MET'MAP, la Météo Aéronautique d'un coup d'oeil ! - Copyright ORBIFLY Décembre 2007 - Disclaimer

ORBIFLY MET'MAP TEAM :

Programmation & Développement : Alexandra Zaïnal
Conception & Développement : Baudouin d'Aumeries
Co-Programmation & Développement : Marc-Olivier Méhu
Soutien technique & logistique : Manuel Goepfert

Contact : metmap@orbifly.com




SOURCES & CREDITS :

   NOAA